sensor_id;sensor_type;location;lat;lon;timestamp;pressure;altitude;pressure_sealevel;temperature;humidity
38718;BME280;24468;52.128;9.278;2023-04-02T00:08:58;100284.34;;;4.93;100.00
38718;BME280;24468;52.128;9.278;2023-04-02T00:11:48;100275.97;;;4.35;100.00
38718;BME280;24468;52.128;9.278;2023-04-02T00:14:28;100280.13;;;4.48;100.00
38718;BME280;24468;52.128;9.278;2023-04-02T00:16:56;100292.13;;;4.66;100.00
38718;BME280;24468;52.128;9.278;2023-04-02T00:22:01;100300.22;;;4.63;100.00
38718;BME280;24468;52.128;9.278;2023-04-02T00:24:27;100314.53;;;4.62;100.00
38718;BME280;24468;52.128;9.278;2023-04-02T00:26:53;100311.56;;;4.35;100.00
38718;BME280;24468;52.128;9.278;2023-04-02T00:29:20;100316.56;;;4.51;100.00
38718;BME280;24468;52.128;9.278;2023-04-02T00:31:49;100315.22;;;4.31;100.00
38718;BME280;24468;52.128;9.278;2023-04-02T00:34:26;100325.88;;;4.33;100.00
38718;BME280;24468;52.128;9.278;2023-04-02T00:36:53;100330.00;;;4.48;100.00
38718;BME280;24468;52.128;9.278;2023-04-02T00:39:23;100327.03;;;4.21;100.00
38718;BME280;24468;52.128;9.278;2023-04-02T00:41:53;100328.91;;;3.72;100.00
38718;BME280;24468;52.128;9.278;2023-04-02T00:44:30;100338.44;;;4.28;100.00
38718;BME280;24468;52.128;9.278;2023-04-02T00:47:02;100334.31;;;4.14;100.00
38718;BME280;24468;52.128;9.278;2023-04-02T00:49:38;100342.81;;;3.90;100.00
38718;BME280;24468;52.128;9.278;2023-04-02T00:52:12;100350.63;;;3.99;100.00
38718;BME280;24468;52.128;9.278;2023-04-02T00:54:47;100341.75;;;3.98;100.00
38718;BME280;24468;52.128;9.278;2023-04-02T00:57:19;100354.44;;;3.87;100.00
38718;BME280;24468;52.128;9.278;2023-04-02T00:59:59;100348.59;;;3.67;100.00
38718;BME280;24468;52.128;9.278;2023-04-02T01:02:31;100353.56;;;3.87;100.00
38718;BME280;24468;52.128;9.278;2023-04-02T01:08:14;100371.84;;;3.60;100.00
38718;BME280;24468;52.128;9.278;2023-04-02T01:11:26;100366.19;;;3.77;100.00
38718;BME280;24468;52.128;9.278;2023-04-02T01:23:32;100380.34;;;3.81;100.00
38718;BME280;24468;52.128;9.278;2023-04-02T01:29:10;100400.25;;;3.63;100.00
38718;BME280;24468;52.128;9.278;2023-04-02T01:31:38;100401.88;;;3.70;100.00
38718;BME280;24468;52.128;9.278;2023-04-02T01:34:10;100411.75;;;3.65;100.00
38718;BME280;24468;52.128;9.278;2023-04-02T01:37:07;100412.69;;;3.64;100.00
38718;BME280;24468;52.128;9.278;2023-04-02T01:39:58;100416.53;;;3.47;100.00
38718;BME280;24468;52.128;9.278;2023-04-02T01:42:37;100428.97;;;3.47;100.00
38718;BME280;24468;52.128;9.278;2023-04-02T01:45:16;100429.72;;;3.55;100.00
38718;BME280;24468;52.128;9.278;2023-04-02T01:47:44;100437.75;;;3.53;100.00
38718;BME280;24468;52.128;9.278;2023-04-02T01:50:23;100442.50;;;3.36;100.00
38718;BME280;24468;52.128;9.278;2023-04-02T01:52:54;100447.06;;;3.29;100.00
38718;BME280;24468;52.128;9.278;2023-04-02T01:55:37;100457.56;;;3.37;100.00
38718;BME280;24468;52.128;9.278;2023-04-02T01:58:03;100473.16;;;3.62;100.00
38718;BME280;24468;52.128;9.278;2023-04-02T02:00:31;100471.44;;;3.59;100.00
38718;BME280;24468;52.128;9.278;2023-04-02T02:03:00;100473.88;;;3.19;100.00
38718;BME280;24468;52.128;9.278;2023-04-02T02:05:26;100476.56;;;3.17;100.00
38718;BME280;24468;52.128;9.278;2023-04-02T02:07:55;100480.03;;;3.24;100.00
38718;BME280;24468;52.128;9.278;2023-04-02T02:10:28;100487.75;;;3.41;100.00
38718;BME280;24468;52.128;9.278;2023-04-02T02:12:57;100479.50;;;3.56;100.00
38718;BME280;24468;52.128;9.278;2023-04-02T02:15:24;100483.19;;;3.49;100.00
38718;BME280;24468;52.128;9.278;2023-04-02T02:17:59;100483.25;;;3.43;100.00
38718;BME280;24468;52.128;9.278;2023-04-02T02:20:27;100498.50;;;3.36;100.00
38718;BME280;24468;52.128;9.278;2023-04-02T02:22:54;100502.63;;;3.57;100.00
38718;BME280;24468;52.128;9.278;2023-04-02T02:25:32;100510.53;;;3.62;100.00
38718;BME280;24468;52.128;9.278;2023-04-02T02:28:05;100518.47;;;3.65;100.00
38718;BME280;24468;52.128;9.278;2023-04-02T02:30:46;100518.19;;;3.27;100.00
38718;BME280;24468;52.128;9.278;2023-04-02T02:33:49;100533.81;;;3.50;100.00
38718;BME280;24468;52.128;9.278;2023-04-02T02:36:32;100540.72;;;3.65;100.00
38718;BME280;24468;52.128;9.278;2023-04-02T02:41:56;100549.00;;;3.47;100.00
38718;BME280;24468;52.128;9.278;2023-04-02T02:44:28;100545.41;;;3.49;100.00
38718;BME280;24468;52.128;9.278;2023-04-02T02:47:14;100559.66;;;3.47;100.00
38718;BME280;24468;52.128;9.278;2023-04-02T02:49:45;100552.03;;;3.21;100.00
38718;BME280;24468;52.128;9.278;2023-04-02T02:52:13;100562.44;;;3.41;100.00
38718;BME280;24468;52.128;9.278;2023-04-02T02:54:47;100568.00;;;3.24;100.00
38718;BME280;24468;52.128;9.278;2023-04-02T02:57:21;100576.84;;;3.27;100.00
38718;BME280;24468;52.128;9.278;2023-04-02T02:59:48;100568.91;;;3.82;100.00
38718;BME280;24468;52.128;9.278;2023-04-02T03:02:15;100577.25;;;3.60;100.00
38718;BME280;24468;52.128;9.278;2023-04-02T03:04:49;100587.50;;;3.26;100.00
38718;BME280;24468;52.128;9.278;2023-04-02T03:07:17;100592.59;;;3.43;100.00
38718;BME280;24468;52.128;9.278;2023-04-02T03:10:12;100602.63;;;3.25;100.00
38718;BME280;24468;52.128;9.278;2023-04-02T03:15:46;100617.28;;;2.90;100.00
38718;BME280;24468;52.128;9.278;2023-04-02T03:21:20;100623.88;;;3.31;100.00
38718;BME280;24468;52.128;9.278;2023-04-02T03:23:58;100626.28;;;2.83;100.00
38718;BME280;24468;52.128;9.278;2023-04-02T03:27:01;100615.22;;;3.14;100.00
38718;BME280;24468;52.128;9.278;2023-04-02T03:29:33;100630.53;;;2.98;100.00
38718;BME280;24468;52.128;9.278;2023-04-02T03:32:18;100637.69;;;2.93;100.00
38718;BME280;24468;52.128;9.278;2023-04-02T03:34:49;100639.63;;;2.80;100.00
38718;BME280;24468;52.128;9.278;2023-04-02T03:37:28;100653.78;;;2.82;100.00
38718;BME280;24468;52.128;9.278;2023-04-02T03:40:23;100655.44;;;2.96;100.00
38718;BME280;24468;52.128;9.278;2023-04-02T03:43:19;100662.50;;;2.98;100.00
38718;BME280;24468;52.128;9.278;2023-04-02T03:45:59;100664.97;;;3.17;100.00
38718;BME280;24468;52.128;9.278;2023-04-02T03:48:38;100671.38;;;3.00;100.00
38718;BME280;24468;52.128;9.278;2023-04-02T03:53:42;100681.38;;;2.80;100.00
38718;BME280;24468;52.128;9.278;2023-04-02T03:56:19;100678.72;;;2.77;100.00
38718;BME280;24468;52.128;9.278;2023-04-02T03:58:53;100681.38;;;2.77;100.00
38718;BME280;24468;52.128;9.278;2023-04-02T04:01:30;100691.16;;;2.78;100.00
38718;BME280;24468;52.128;9.278;2023-04-02T04:04:18;100699.94;;;2.87;100.00
38718;BME280;24468;52.128;9.278;2023-04-02T04:06:48;100701.69;;;2.92;100.00
38718;BME280;24468;52.128;9.278;2023-04-02T04:09:36;100712.53;;;2.72;100.00
38718;BME280;24468;52.128;9.278;2023-04-02T04:12:23;100710.75;;;2.72;100.00
38718;BME280;24468;52.128;9.278;2023-04-02T04:15:21;100713.41;;;2.72;100.00
38718;BME280;24468;52.128;9.278;2023-04-02T04:20:57;100718.53;;;2.94;100.00
38718;BME280;24468;52.128;9.278;2023-04-02T04:23:32;100725.16;;;2.47;100.00
38718;BME280;24468;52.128;9.278;2023-04-02T04:26:17;100734.66;;;2.80;100.00
38718;BME280;24468;52.128;9.278;2023-04-02T04:31:32;100746.13;;;2.85;100.00
38718;BME280;24468;52.128;9.278;2023-04-02T04:34:44;100763.06;;;2.81;100.00
38718;BME280;24468;52.128;9.278;2023-04-02T04:37:23;100764.97;;;2.66;100.00
38718;BME280;24468;52.128;9.278;2023-04-02T04:39:58;100780.06;;;2.69;100.00
38718;BME280;24468;52.128;9.278;2023-04-02T04:42:29;100781.66;;;2.87;100.00
38718;BME280;24468;52.128;9.278;2023-04-02T04:47:50;100794.09;;;2.85;100.00
38718;BME280;24468;52.128;9.278;2023-04-02T04:50:34;100804.53;;;3.09;100.00
38718;BME280;24468;52.128;9.278;2023-04-02T04:53:15;100806.34;;;3.07;100.00
38718;BME280;24468;52.128;9.278;2023-04-02T04:55:47;100807.13;;;3.19;100.00
38718;BME280;24468;52.128;9.278;2023-04-02T05:01:06;100826.78;;;3.08;100.00
38718;BME280;24468;52.128;9.278;2023-04-02T05:12:11;100842.75;;;3.11;100.00
38718;BME280;24468;52.128;9.278;2023-04-02T05:14:54;100845.31;;;3.22;100.00
38718;BME280;24468;52.128;9.278;2023-04-02T05:20:32;100851.56;;;3.20;100.00
38718;BME280;24468;52.128;9.278;2023-04-02T05:23:16;100864.03;;;3.16;100.00
38718;BME280;24468;52.128;9.278;2023-04-02T05:26:08;100875.81;;;2.89;100.00
38718;BME280;24468;52.128;9.278;2023-04-02T05:29:00;100868.25;;;3.37;100.00
38718;BME280;24468;52.128;9.278;2023-04-02T05:34:32;100887.97;;;3.22;100.00
38718;BME280;24468;52.128;9.278;2023-04-02T05:37:02;100887.84;;;3.38;100.00
38718;BME280;24468;52.128;9.278;2023-04-02T05:39:28;100889.59;;;3.37;100.00
38718;BME280;24468;52.128;9.278;2023-04-02T05:42:06;100914.69;;;3.15;100.00
38718;BME280;24468;52.128;9.278;2023-04-02T05:44:53;100903.72;;;3.50;100.00
38718;BME280;24468;52.128;9.278;2023-04-02T05:47:27;100922.59;;;3.25;100.00
38718;BME280;24468;52.128;9.278;2023-04-02T05:52:33;100916.34;;;3.28;100.00
38718;BME280;24468;52.128;9.278;2023-04-02T05:57:46;100934.16;;;3.27;100.00
38718;BME280;24468;52.128;9.278;2023-04-02T06:00:24;100942.03;;;3.40;100.00
38718;BME280;24468;52.128;9.278;2023-04-02T06:03:03;100941.09;;;3.45;100.00
38718;BME280;24468;52.128;9.278;2023-04-02T06:05:41;100944.56;;;3.53;100.00
38718;BME280;24468;52.128;9.278;2023-04-02T06:08:16;100950.81;;;3.54;100.00
38718;BME280;24468;52.128;9.278;2023-04-02T06:11:05;100953.59;;;3.37;100.00
38718;BME280;24468;52.128;9.278;2023-04-02T06:13:32;100962.38;;;3.54;100.00
38718;BME280;24468;52.128;9.278;2023-04-02T06:15:58;100973.00;;;3.56;100.00
38718;BME280;24468;52.128;9.278;2023-04-02T06:18:30;100977.56;;;3.45;100.00
38718;BME280;24468;52.128;9.278;2023-04-02T06:20:57;100983.00;;;3.32;100.00
38718;BME280;24468;52.128;9.278;2023-04-02T06:23:40;100989.34;;;3.16;100.00
38718;BME280;24468;52.128;9.278;2023-04-02T06:26:29;100990.16;;;3.24;100.00
38718;BME280;24468;52.128;9.278;2023-04-02T06:29:26;100993.84;;;3.08;100.00
38718;BME280;24468;52.128;9.278;2023-04-02T06:32:01;101012.06;;;3.66;100.00
38718;BME280;24468;52.128;9.278;2023-04-02T06:34:29;101012.84;;;3.79;100.00
38718;BME280;24468;52.128;9.278;2023-04-02T06:36:58;101013.63;;;3.89;100.00
38718;BME280;24468;52.128;9.278;2023-04-02T06:39:26;101012.19;;;3.49;100.00
38718;BME280;24468;52.128;9.278;2023-04-02T06:42:10;101023.66;;;3.62;100.00
38718;BME280;24468;52.128;9.278;2023-04-02T06:44:37;101020.59;;;4.07;100.00
38718;BME280;24468;52.128;9.278;2023-04-02T06:49:51;101039.75;;;3.50;100.00
38718;BME280;24468;52.128;9.278;2023-04-02T06:52:43;101023.84;;;3.38;100.00
38718;BME280;24468;52.128;9.278;2023-04-02T06:55:30;101037.88;;;3.61;100.00
38718;BME280;24468;52.128;9.278;2023-04-02T06:57:57;101045.75;;;3.79;100.00
38718;BME280;24468;52.128;9.278;2023-04-02T07:00:37;101041.59;;;3.43;100.00
38718;BME280;24468;52.128;9.278;2023-04-02T07:03:07;101058.16;;;3.87;100.00
38718;BME280;24468;52.128;9.278;2023-04-02T07:05:38;101066.13;;;3.88;100.00
38718;BME280;24468;52.128;9.278;2023-04-02T07:08:03;101070.50;;;3.98;100.00
38718;BME280;24468;52.128;9.278;2023-04-02T07:10:29;101074.06;;;3.99;100.00
38718;BME280;24468;52.128;9.278;2023-04-02T07:12:54;101079.66;;;3.68;100.00
38718;BME280;24468;52.128;9.278;2023-04-02T07:15:20;101082.41;;;3.54;100.00
38718;BME280;24468;52.128;9.278;2023-04-02T07:17:48;101087.53;;;3.81;100.00
38718;BME280;24468;52.128;9.278;2023-04-02T07:20:31;101086.59;;;3.88;100.00
38718;BME280;24468;52.128;9.278;2023-04-02T07:22:57;101090.00;;;4.07;100.00
38718;BME280;24468;52.128;9.278;2023-04-02T07:25:25;101097.81;;;4.27;100.00
38718;BME280;24468;52.128;9.278;2023-04-02T07:27:52;101108.50;;;4.28;100.00
38718;BME280;24468;52.128;9.278;2023-04-02T07:30:17;101111.94;;;4.42;100.00
38718;BME280;24468;52.128;9.278;2023-04-02T07:32:44;101115.44;;;4.48;100.00
38718;BME280;24468;52.128;9.278;2023-04-02T07:35:10;101123.31;;;4.60;100.00
38718;BME280;24468;52.128;9.278;2023-04-02T07:37:37;101121.44;;;4.70;100.00
38718;BME280;24468;52.128;9.278;2023-04-02T07:40:06;101125.25;;;4.47;100.00
38718;BME280;24468;52.128;9.278;2023-04-02T07:42:36;101118.31;;;4.24;100.00
38718;BME280;24468;52.128;9.278;2023-04-02T07:45:02;101119.09;;;4.37;100.00
38718;BME280;24468;52.128;9.278;2023-04-02T07:47:28;101130.69;;;4.33;100.00
38718;BME280;24468;52.128;9.278;2023-04-02T07:49:53;101135.75;;;4.62;100.00
38718;BME280;24468;52.128;9.278;2023-04-02T07:52:19;101145.94;;;4.25;100.00
38718;BME280;24468;52.128;9.278;2023-04-02T07:54:46;101148.00;;;3.88;100.00
38718;BME280;24468;52.128;9.278;2023-04-02T07:57:11;101153.13;;;4.15;100.00
38718;BME280;24468;52.128;9.278;2023-04-02T07:59:37;101174.38;;;4.29;100.00
38718;BME280;24468;52.128;9.278;2023-04-02T08:02:02;101160.50;;;3.78;100.00
38718;BME280;24468;52.128;9.278;2023-04-02T08:04:28;101163.88;;;4.08;100.00
38718;BME280;24468;52.128;9.278;2023-04-02T08:06:54;101179.69;;;4.32;100.00
38718;BME280;24468;52.128;9.278;2023-04-02T08:09:19;101173.31;;;4.49;100.00
38718;BME280;24468;52.128;9.278;2023-04-02T08:11:45;101177.81;;;4.45;100.00
38718;BME280;24468;52.128;9.278;2023-04-02T08:14:10;101186.31;;;4.85;100.00
38718;BME280;24468;52.128;9.278;2023-04-02T08:16:47;101184.66;;;4.74;100.00
38718;BME280;24468;52.128;9.278;2023-04-02T08:19:13;101188.00;;;4.94;100.00
38718;BME280;24468;52.128;9.278;2023-04-02T08:21:39;101195.25;;;4.81;100.00
38718;BME280;24468;52.128;9.278;2023-04-02T08:24:04;101209.25;;;5.08;100.00
38718;BME280;24468;52.128;9.278;2023-04-02T08:26:30;101209.69;;;4.66;100.00
38718;BME280;24468;52.128;9.278;2023-04-02T08:28:55;101209.75;;;4.59;100.00
38718;BME280;24468;52.128;9.278;2023-04-02T08:31:21;101204.59;;;4.36;100.00
38718;BME280;24468;52.128;9.278;2023-04-02T08:33:47;101222.34;;;4.41;100.00
38718;BME280;24468;52.128;9.278;2023-04-02T08:36:17;101219.66;;;4.41;100.00
38718;BME280;24468;52.128;9.278;2023-04-02T08:38:43;101220.63;;;4.33;100.00
38718;BME280;24468;52.128;9.278;2023-04-02T08:41:20;101228.41;;;4.62;100.00
38718;BME280;24468;52.128;9.278;2023-04-02T08:44:26;101230.84;;;4.89;100.00
38718;BME280;24468;52.128;9.278;2023-04-02T08:47:04;101244.13;;;4.97;100.00
38718;BME280;24468;52.128;9.278;2023-04-02T08:52:00;101243.53;;;4.64;100.00
38718;BME280;24468;52.128;9.278;2023-04-02T08:54:30;101252.44;;;4.66;100.00
38718;BME280;24468;52.128;9.278;2023-04-02T08:57:15;101251.69;;;4.51;100.00
38718;BME280;24468;52.128;9.278;2023-04-02T08:59:44;101243.19;;;5.03;100.00
38718;BME280;24468;52.128;9.278;2023-04-02T09:02:28;101252.19;;;4.93;100.00
38718;BME280;24468;52.128;9.278;2023-04-02T09:04:57;101260.38;;;4.74;100.00
38718;BME280;24468;52.128;9.278;2023-04-02T09:07:24;101260.03;;;5.09;100.00
38718;BME280;24468;52.128;9.278;2023-04-02T09:09:51;101265.34;;;5.14;100.00
38718;BME280;24468;52.128;9.278;2023-04-02T09:12:29;101268.91;;;5.15;100.00
38718;BME280;24468;52.128;9.278;2023-04-02T09:17:43;101282.34;;;5.07;100.00
38718;BME280;24468;52.128;9.278;2023-04-02T09:20:23;101282.78;;;5.50;100.00
38718;BME280;24468;52.128;9.278;2023-04-02T09:22:50;101290.25;;;5.19;100.00
38718;BME280;24468;52.128;9.278;2023-04-02T09:25:24;101297.06;;;5.49;100.00
38718;BME280;24468;52.128;9.278;2023-04-02T09:28:01;101302.47;;;5.45;100.00
38718;BME280;24468;52.128;9.278;2023-04-02T09:30:54;101313.66;;;4.96;100.00
38718;BME280;24468;52.128;9.278;2023-04-02T09:33:45;101313.97;;;5.54;100.00
38718;BME280;24468;52.128;9.278;2023-04-02T09:36:38;101308.09;;;5.17;100.00
38718;BME280;24468;52.128;9.278;2023-04-02T09:39:24;101319.81;;;5.04;100.00
38718;BME280;24468;52.128;9.278;2023-04-02T09:41:52;101323.50;;;4.92;100.00
38718;BME280;24468;52.128;9.278;2023-04-02T09:44:27;101316.56;;;5.61;100.00
38718;BME280;24468;52.128;9.278;2023-04-02T09:47:00;101336.72;;;5.10;100.00
38718;BME280;24468;52.128;9.278;2023-04-02T09:49:38;101330.22;;;5.36;100.00
38718;BME280;24468;52.128;9.278;2023-04-02T09:57:39;101349.06;;;5.22;100.00
38718;BME280;24468;52.128;9.278;2023-04-02T10:05:46;101349.41;;;4.85;100.00
38718;BME280;24468;52.128;9.278;2023-04-02T10:08:24;101359.88;;;5.11;100.00
38718;BME280;24468;52.128;9.278;2023-04-02T10:10:53;101369.56;;;5.25;100.00
38718;BME280;24468;52.128;9.278;2023-04-02T10:13:56;101371.66;;;5.78;100.00
38718;BME280;24468;52.128;9.278;2023-04-02T10:16:37;101381.91;;;5.41;100.00
38718;BME280;24468;52.128;9.278;2023-04-02T10:19:32;101379.75;;;5.77;100.00
38718;BME280;24468;52.128;9.278;2023-04-02T10:22:13;101374.00;;;6.12;100.00
38718;BME280;24468;52.128;9.278;2023-04-02T10:24:40;101383.44;;;5.62;100.00
38718;BME280;24468;52.128;9.278;2023-04-02T10:27:36;101390.94;;;5.26;100.00
38718;BME280;24468;52.128;9.278;2023-04-02T10:30:40;101397.63;;;5.73;100.00
38718;BME280;24468;52.128;9.278;2023-04-02T10:33:21;101392.59;;;5.41;100.00
38718;BME280;24468;52.128;9.278;2023-04-02T10:36:05;101399.50;;;5.64;100.00
38718;BME280;24468;52.128;9.278;2023-04-02T10:39:02;101402.00;;;5.82;100.00
38718;BME280;24468;52.128;9.278;2023-04-02T10:41:50;101400.09;;;5.96;100.00
38718;BME280;24468;52.128;9.278;2023-04-02T10:44:50;101408.94;;;6.01;100.00
38718;BME280;24468;52.128;9.278;2023-04-02T10:53:20;101419.28;;;6.34;100.00
38718;BME280;24468;52.128;9.278;2023-04-02T10:55:57;101409.44;;;6.34;100.00
38718;BME280;24468;52.128;9.278;2023-04-02T10:58:30;101421.69;;;6.52;100.00
38718;BME280;24468;52.128;9.278;2023-04-02T11:01:13;101426.28;;;5.65;100.00
38718;BME280;24468;52.128;9.278;2023-04-02T11:03:48;101429.47;;;6.04;100.00
38718;BME280;24468;52.128;9.278;2023-04-02T11:06:39;101418.63;;;6.80;100.00
38718;BME280;24468;52.128;9.278;2023-04-02T11:09:17;101428.31;;;6.92;100.00
38718;BME280;24468;52.128;9.278;2023-04-02T11:11:48;101431.63;;;5.64;100.00
38718;BME280;24468;52.128;9.278;2023-04-02T11:14:29;101437.91;;;6.43;100.00
38718;BME280;24468;52.128;9.278;2023-04-02T11:16:57;101437.91;;;6.41;100.00
38718;BME280;24468;52.128;9.278;2023-04-02T11:19:30;101432.47;;;7.11;100.00
38718;BME280;24468;52.128;9.278;2023-04-02T11:22:16;101431.97;;;6.86;97.36
38718;BME280;24468;52.128;9.278;2023-04-02T11:24:47;101443.78;;;6.71;100.00
38718;BME280;24468;52.128;9.278;2023-04-02T11:27:23;101455.28;;;6.08;100.00
38718;BME280;24468;52.128;9.278;2023-04-02T11:32:48;101462.47;;;6.06;100.00
38718;BME280;24468;52.128;9.278;2023-04-02T11:38:02;101470.44;;;6.82;100.00
38718;BME280;24468;52.128;9.278;2023-04-02T11:40:50;101476.25;;;6.50;99.36
38718;BME280;24468;52.128;9.278;2023-04-02T11:45:59;101486.16;;;7.09;93.69
38718;BME280;24468;52.128;9.278;2023-04-02T11:48:27;101497.16;;;6.17;93.83
38718;BME280;24468;52.128;9.278;2023-04-02T11:50:53;101485.44;;;6.27;97.16
38718;BME280;24468;52.128;9.278;2023-04-02T11:53:34;101491.72;;;6.26;95.87
38718;BME280;24468;52.128;9.278;2023-04-02T11:56:19;101488.69;;;6.55;96.00
38718;BME280;24468;52.128;9.278;2023-04-02T12:04:50;101501.09;;;7.26;91.63
38718;BME280;24468;52.128;9.278;2023-04-02T12:07:55;101496.25;;;6.92;86.26
38718;BME280;24468;52.128;9.278;2023-04-02T12:11:00;101495.63;;;7.88;88.05
38718;BME280;24468;52.128;9.278;2023-04-02T12:13:53;101503.38;;;8.03;84.79
38718;BME280;24468;52.128;9.278;2023-04-02T12:16:20;101503.75;;;7.83;84.98
38718;BME280;24468;52.128;9.278;2023-04-02T12:18:48;101509.06;;;7.86;85.45
38718;BME280;24468;52.128;9.278;2023-04-02T12:21:26;101513.97;;;8.12;87.02
38718;BME280;24468;52.128;9.278;2023-04-02T12:23:57;101513.88;;;8.17;85.47
38718;BME280;24468;52.128;9.278;2023-04-02T12:26:33;101512.72;;;7.82;83.58
38718;BME280;24468;52.128;9.278;2023-04-02T12:31:48;101517.88;;;7.40;90.54
38718;BME280;24468;52.128;9.278;2023-04-02T12:34:17;101515.84;;;7.57;90.70
38718;BME280;24468;52.128;9.278;2023-04-02T12:39:20;101524.00;;;6.88;86.73
38718;BME280;24468;52.128;9.278;2023-04-02T12:41:46;101517.88;;;7.94;85.65
38718;BME280;24468;52.128;9.278;2023-04-02T12:44:19;101524.09;;;8.48;82.17
38718;BME280;24468;52.128;9.278;2023-04-02T12:46:49;101522.47;;;7.35;80.51
38718;BME280;24468;52.128;9.278;2023-04-02T12:51:53;101524.28;;;7.87;84.84
38718;BME280;24468;52.128;9.278;2023-04-02T12:54:19;101540.78;;;7.64;89.27
38718;BME280;24468;52.128;9.278;2023-04-02T12:56:47;101532.06;;;7.48;85.81
38718;BME280;24468;52.128;9.278;2023-04-02T13:02:01;101537.16;;;8.18;83.30
38718;BME280;24468;52.128;9.278;2023-04-02T13:04:27;101532.47;;;7.79;79.60
38718;BME280;24468;52.128;9.278;2023-04-02T13:06:54;101524.19;;;8.85;78.74
38718;BME280;24468;52.128;9.278;2023-04-02T13:09:44;101516.75;;;8.54;74.02
38718;BME280;24468;52.128;9.278;2023-04-02T13:12:37;101526.50;;;8.60;76.13
38718;BME280;24468;52.128;9.278;2023-04-02T13:15:06;101524.22;;;8.83;73.89
38718;BME280;24468;52.128;9.278;2023-04-02T13:17:47;101516.38;;;9.13;68.46
38718;BME280;24468;52.128;9.278;2023-04-02T13:20:31;101527.31;;;8.65;76.84
38718;BME280;24468;52.128;9.278;2023-04-02T13:22:59;101525.34;;;8.72;75.00
38718;BME280;24468;52.128;9.278;2023-04-02T13:25:35;101528.47;;;9.34;73.65
38718;BME280;24468;52.128;9.278;2023-04-02T13:28:01;101517.91;;;9.62;73.18
38718;BME280;24468;52.128;9.278;2023-04-02T13:30:28;101523.22;;;9.28;72.62
38718;BME280;24468;52.128;9.278;2023-04-02T13:32:54;101526.66;;;8.54;76.24
38718;BME280;24468;52.128;9.278;2023-04-02T13:35:20;101532.34;;;9.22;75.96
38718;BME280;24468;52.128;9.278;2023-04-02T13:37:46;101533.84;;;8.53;73.84
38718;BME280;24468;52.128;9.278;2023-04-02T13:40:13;101532.41;;;8.79;77.42
38718;BME280;24468;52.128;9.278;2023-04-02T13:42:42;101540.00;;;8.09;72.79
38718;BME280;24468;52.128;9.278;2023-04-02T13:45:24;101532.59;;;7.70;76.34
38718;BME280;24468;52.128;9.278;2023-04-02T13:47:52;101548.81;;;7.64;76.42
38718;BME280;24468;52.128;9.278;2023-04-02T13:50:21;101534.09;;;8.36;77.82
38718;BME280;24468;52.128;9.278;2023-04-02T13:52:51;101528.22;;;8.17;73.97
38718;BME280;24468;52.128;9.278;2023-04-02T13:55:19;101528.72;;;8.36;76.63
38718;BME280;24468;52.128;9.278;2023-04-02T13:57:47;101529.34;;;8.52;74.09
38718;BME280;24468;52.128;9.278;2023-04-02T14:00:15;101527.22;;;8.70;71.11
38718;BME280;24468;52.128;9.278;2023-04-02T14:02:48;101528.66;;;8.86;69.80
38718;BME280;24468;52.128;9.278;2023-04-02T14:11:41;101531.69;;;9.11;71.11
38718;BME280;24468;52.128;9.278;2023-04-02T14:17:15;101543.41;;;9.85;68.81
38718;BME280;24468;52.128;9.278;2023-04-02T14:34:16;101541.78;;;10.12;66.96
38718;BME280;24468;52.128;9.278;2023-04-02T14:45:07;101544.53;;;10.44;63.88
38718;BME280;24468;52.128;9.278;2023-04-02T14:47:44;101555.00;;;9.87;64.98
38718;BME280;24468;52.128;9.278;2023-04-02T14:50:22;101567.03;;;9.73;66.40
38718;BME280;24468;52.128;9.278;2023-04-02T14:52:56;101558.28;;;8.84;69.86
38718;BME280;24468;52.128;9.278;2023-04-02T14:55:33;101560.19;;;8.79;70.47
38718;BME280;24468;52.128;9.278;2023-04-02T14:58:04;101566.06;;;8.55;71.54
38718;BME280;24468;52.128;9.278;2023-04-02T15:01:00;101566.16;;;8.50;72.67
38718;BME280;24468;52.128;9.278;2023-04-02T15:06:16;101579.09;;;8.75;72.77
38718;BME280;24468;52.128;9.278;2023-04-02T15:08:50;101577.63;;;8.58;71.89
38718;BME280;24468;52.128;9.278;2023-04-02T15:11:38;101571.88;;;8.78;72.81
38718;BME280;24468;52.128;9.278;2023-04-02T15:14:27;101571.91;;;9.57;67.98
38718;BME280;24468;52.128;9.278;2023-04-02T15:16:55;101566.81;;;9.83;68.81
38718;BME280;24468;52.128;9.278;2023-04-02T15:19:21;101578.59;;;10.49;64.54
38718;BME280;24468;52.128;9.278;2023-04-02T15:22:18;101571.19;;;10.88;61.18
38718;BME280;24468;52.128;9.278;2023-04-02T15:28:29;101559.75;;;11.38;56.76
38718;BME280;24468;52.128;9.278;2023-04-02T15:30:59;101564.25;;;11.39;56.82
38718;BME280;24468;52.128;9.278;2023-04-02T15:33:41;101572.19;;;11.43;55.14
38718;BME280;24468;52.128;9.278;2023-04-02T15:39:19;101570.06;;;10.95;57.51
38718;BME280;24468;52.128;9.278;2023-04-02T15:42:32;101578.09;;;10.67;58.85
38718;BME280;24468;52.128;9.278;2023-04-02T15:45:17;101583.75;;;10.89;59.17
38718;BME280;24468;52.128;9.278;2023-04-02T15:53:45;101594.00;;;10.09;62.21
38718;BME280;24468;52.128;9.278;2023-04-02T16:02:36;101599.19;;;9.44;64.74
38718;BME280;24468;52.128;9.278;2023-04-02T16:10:57;101625.16;;;9.04;66.55
38718;BME280;24468;52.128;9.278;2023-04-02T16:13:33;101631.88;;;8.83;67.34
38718;BME280;24468;52.128;9.278;2023-04-02T16:18:50;101638.81;;;9.37;68.17
38718;BME280;24468;52.128;9.278;2023-04-02T16:21:21;101636.19;;;9.73;65.38
38718;BME280;24468;52.128;9.278;2023-04-02T16:23:48;101638.88;;;9.74;63.12
38718;BME280;24468;52.128;9.278;2023-04-02T16:26:30;101645.97;;;10.52;60.21
38718;BME280;24468;52.128;9.278;2023-04-02T16:29:20;101651.94;;;10.64;59.38
38718;BME280;24468;52.128;9.278;2023-04-02T16:32:37;101656.41;;;10.64;58.49
38718;BME280;24468;52.128;9.278;2023-04-02T16:43:51;101662.34;;;11.41;55.07
38718;BME280;24468;52.128;9.278;2023-04-02T16:46:32;101667.28;;;10.62;55.75